Time;durP1;ratioP1;P1;durP2;ratioP2;P2;SDS_P1;SDS_P2;PMS_P1;PMS_P2;Temp;Humidity;BMP_temperature;BMP_pressure;BME280_temperature;BME280_humidity;BME280_pressure;Samples;Min_cycle;Max_cycle;Signal;HPM_P1;HPM_P2
2024/03/06 00:02:08;;;;;;;17.67;12.02;;;12.60;81.00;;;;;;4981150;28;113604;-53
2024/03/06 00:04:34;;;;;;;24.58;13.05;;;12.60;80.80;;;;;;4981508;28;114815;-54
2024/03/06 00:07:00;;;;;;;18.38;12.18;;;12.30;81.60;;;;;;4970719;28;113118;-53
2024/03/06 00:09:29;;;;;;;19.75;12.73;;;12.20;81.70;;;;;;4971142;28;112596;-53
2024/03/06 00:11:58;;;;;;;13.75;11.05;;;12.00;82.60;;;;;;4976256;28;113336;-51
2024/03/06 00:14:24;;;;;;;16.70;11.35;;;12.10;82.10;;;;;;4972496;28;113258;-52
2024/03/06 00:16:50;;;;;;;17.95;10.38;;;12.00;82.50;;;;;;4973819;28;112851;-53
2024/03/06 00:19:20;;;;;;;14.52;9.93;;;12.00;82.40;;;;;;4976979;28;112746;-53
2024/03/06 00:21:46;;;;;;;14.93;9.50;;;11.90;82.30;;;;;;4978043;28;112787;-53
2024/03/06 00:24:15;;;;;;;13.73;9.18;;;12.00;82.20;;;;;;4974140;28;113379;-53
2024/03/06 00:26:42;;;;;;;15.10;9.57;;;12.10;81.90;;;;;;4968485;28;113207;-53
2024/03/06 00:29:08;;;;;;;15.63;9.73;;;12.10;82.10;;;;;;4968877;28;112765;-53
2024/03/06 00:31:34;;;;;;;14.63;10.30;;;12.00;81.90;;;;;;4969356;28;112799;-54
2024/03/06 00:34:00;;;;;;;12.35;9.73;;;12.00;82.50;;;;;;4967735;28;113207;-52
2024/03/06 00:36:26;;;;;;;16.45;9.07;;;11.90;82.50;;;;;;4968916;28;113142;-54
2024/03/06 00:38:51;;;;;;;13.35;9.13;;;11.90;82.90;;;;;;4969549;28;113032;-53
2024/03/06 00:41:17;;;;;;;11.15;7.57;;;12.00;82.20;;;;;;4969236;28;112810;-53
2024/03/06 00:43:43;;;;;;;12.40;8.15;;;12.20;82.10;;;;;;4968067;28;114692;-52
2024/03/06 00:46:09;;;;;;;11.85;7.85;;;12.20;82.40;;;;;;4978143;28;113189;-53
2024/03/06 00:48:34;;;;;;;11.25;7.22;;;12.30;81.40;;;;;;4985056;28;113204;-53
2024/03/06 00:51:00;;;;;;;12.75;7.10;;;12.40;81.20;;;;;;4979309;28;112921;-53
2024/03/06 00:53:26;;;;;;;12.20;6.15;;;12.30;81.10;;;;;;4971448;28;113200;-54
2024/03/06 00:55:51;;;;;;;11.80;5.75;;;12.10;81.40;;;;;;4978990;28;112997;-54
2024/03/06 00:58:17;;;;;;;8.85;5.32;;;12.00;81.50;;;;;;4980670;28;112598;-54
2024/03/06 01:00:43;;;;;;;10.73;4.80;;;12.10;81.20;;;;;;4976395;28;112673;-53
2024/03/06 01:03:08;;;;;;;9.25;4.97;;;11.90;81.30;;;;;;4968905;28;113968;-54
2024/03/06 01:05:34;;;;;;;11.35;4.65;;;11.80;81.60;;;;;;4971560;28;112693;-53
2024/03/06 01:08:00;;;;;;;16.80;7.15;;;11.90;81.60;;;;;;4971036;28;113811;-53
2024/03/06 01:10:25;;;;;;;16.63;9.05;;;11.90;81.70;;;;;;4976597;28;113277;-54
2024/03/06 01:12:51;;;;;;;13.95;5.75;;;11.90;81.80;;;;;;4984916;28;115424;-53
2024/03/06 01:15:17;;;;;;;13.10;5.20;;;11.90;81.90;;;;;;4968402;28;113022;-54
2024/03/06 01:17:43;;;;;;;15.75;4.97;;;11.90;81.80;;;;;;5002345;27;112864;-54
2024/03/06 01:20:09;;;;;;;13.00;4.60;;;11.80;81.70;;;;;;4975645;28;112693;-54
2024/03/06 01:22:35;;;;;;;9.63;4.50;;;11.70;82.40;;;;;;4987512;28;113744;-54
2024/03/06 01:25:01;;;;;;;12.15;4.55;;;11.70;82.10;;;;;;4987528;28;112769;-53
2024/03/06 01:27:27;;;;;;;7.00;3.88;;;11.70;82.30;;;;;;4988785;28;112991;-54
2024/03/06 01:29:53;;;;;;;9.98;4.70;;;11.70;82.40;;;;;;4987698;28;112702;-54
2024/03/06 01:32:19;;;;;;;13.95;4.97;;;11.80;82.20;;;;;;4987226;28;113343;-53
2024/03/06 01:34:44;;;;;;;10.85;4.15;;;11.90;82.80;;;;;;4987358;28;113070;-54
2024/03/06 01:37:10;;;;;;;15.02;4.60;;;11.80;82.70;;;;;;4988103;28;112743;-54
2024/03/06 01:39:36;;;;;;;12.10;4.57;;;11.70;82.90;;;;;;4988245;28;112942;-54
2024/03/06 01:42:02;;;;;;;11.13;3.67;;;11.80;83.00;;;;;;4986946;28;114412;-54
2024/03/06 01:44:29;;;;;;;10.43;4.20;;;11.70;82.90;;;;;;4986919;28;113763;-53
2024/03/06 01:46:54;;;;;;;10.27;4.05;;;11.70;83.00;;;;;;4987753;28;112997;-54
2024/03/06 01:49:21;;;;;;;11.95;4.13;;;11.60;83.00;;;;;;4988208;28;112833;-54
2024/03/06 01:51:53;;;;;;;6.90;3.70;;;11.50;83.30;;;;;;4986903;28;113158;-54
2024/03/06 01:54:19;;;;;;;7.10;3.25;;;11.50;83.10;;;;;;4979200;28;113899;-54
2024/03/06 01:56:46;;;;;;;15.52;4.00;;;11.60;83.30;;;;;;4987945;28;112786;-54
2024/03/06 01:59:13;;;;;;;10.57;3.90;;;11.60;82.80;;;;;;4984143;28;112860;-54
2024/03/06 02:01:39;;;;;;;8.20;3.75;;;11.70;82.90;;;;;;4973025;28;114411;-54
2024/03/06 02:04:09;;;;;;;11.15;3.72;;;11.60;82.90;;;;;;4985677;28;113081;-54
2024/03/06 02:06:35;;;;;;;10.25;3.92;;;11.60;82.80;;;;;;4985587;28;112816;-54
2024/03/06 02:09:03;;;;;;;10.38;3.42;;;11.60;83.10;;;;;;4987915;28;112756;-54
2024/03/06 02:11:29;;;;;;;12.23;4.05;;;11.60;83.20;;;;;;4986446;28;113697;-54
2024/03/06 02:13:55;;;;;;;10.73;4.10;;;11.60;83.00;;;;;;4986463;28;113892;-54
2024/03/06 02:16:20;;;;;;;8.85;4.07;;;11.50;83.40;;;;;;4987991;28;113247;-54
2024/03/06 02:18:53;;;;;;;10.95;4.32;;;11.60;83.20;;;;;;4987928;28;112670;-54
2024/03/06 02:21:23;;;;;;;8.50;3.58;;;11.50;83.10;;;;;;4973081;28;113233;-54
2024/03/06 02:23:49;;;;;;;8.77;4.10;;;11.40;83.30;;;;;;4986133;28;114373;-54
2024/03/06 02:26:15;;;;;;;9.95;4.00;;;11.40;83.60;;;;;;4987486;28;112599;-54
2024/03/06 02:28:47;;;;;;;11.63;4.20;;;11.50;83.20;;;;;;4987535;28;112788;-54
2024/03/06 02:31:13;;;;;;;12.70;4.35;;;11.50;83.00;;;;;;4972455;28;113216;-54
2024/03/06 02:33:39;;;;;;;14.57;4.82;;;11.50;82.90;;;;;;4985892;28;113702;-54
2024/03/06 02:36:05;;;;;;;18.67;4.55;;;11.40;83.20;;;;;;4987753;28;112896;-54
2024/03/06 02:38:31;;;;;;;11.02;4.32;;;11.40;83.20;;;;;;4987464;28;112683;-54
2024/03/06 02:40:57;;;;;;;10.93;4.30;;;11.40;83.00;;;;;;4984973;28;114508;-54
2024/03/06 02:43:22;;;;;;;13.95;4.70;;;11.40;83.20;;;;;;4986246;28;112869;-54
2024/03/06 02:45:48;;;;;;;12.27;4.47;;;11.40;83.10;;;;;;4987128;28;112930;-54
2024/03/06 02:48:14;;;;;;;10.82;4.60;;;11.40;83.10;;;;;;4986894;28;113202;-53
2024/03/06 02:50:39;;;;;;;11.57;5.07;;;11.30;83.10;;;;;;4986231;28;113279;-54
2024/03/06 02:53:05;;;;;;;15.13;5.63;;;11.20;83.40;;;;;;4985967;28;112710;-54
2024/03/06 02:55:31;;;;;;;10.18;4.85;;;11.20;83.50;;;;;;4987498;28;112978;-54
2024/03/06 02:57:56;;;;;;;15.95;6.03;;;11.10;83.50;;;;;;4987444;28;112850;-54
2024/03/06 03:00:22;;;;;;;13.88;5.43;;;11.00;83.80;;;;;;4984371;28;114481;-53
2024/03/06 03:02:48;;;;;;;17.45;5.32;;;11.10;83.70;;;;;;4985841;28;113934;-54
2024/03/06 03:05:13;;;;;;;11.50;5.22;;;11.00;83.90;;;;;;4986906;28;112756;-54
2024/03/06 03:07:39;;;;;;;16.17;5.82;;;10.90;84.10;;;;;;4986887;28;112743;-54
2024/03/06 03:10:06;;;;;;;14.45;5.63;;;11.10;83.80;;;;;;4986293;28;114087;-54
2024/03/06 03:12:31;;;;;;;16.55;5.95;;;11.00;84.00;;;;;;4985562;28;114003;-54
2024/03/06 03:14:57;;;;;;;11.45;6.15;;;11.00;83.90;;;;;;4986611;28;113022;-54
2024/03/06 03:17:23;;;;;;;13.18;5.65;;;11.00;84.00;;;;;;4986787;28;112650;-54
2024/03/06 03:19:48;;;;;;;17.23;5.53;;;11.00;84.20;;;;;;4985667;28;114438;-55
2024/03/06 03:22:14;;;;;;;13.00;6.20;;;11.10;84.00;;;;;;4985443;28;113930;-54
2024/03/06 03:24:42;;;;;;;14.75;6.22;;;11.10;83.90;;;;;;4986978;28;112564;-54
2024/03/06 03:27:07;;;;;;;12.25;5.75;;;11.10;83.80;;;;;;4990417;28;112813;-54
2024/03/06 03:29:33;;;;;;;13.57;6.35;;;11.10;83.70;;;;;;4989133;28;113425;-54
2024/03/06 03:31:59;;;;;;;14.82;6.65;;;11.10;83.90;;;;;;4988730;28;113740;-54
2024/03/06 03:34:24;;;;;;;11.27;6.03;;;11.40;83.20;;;;;;4990048;28;112664;-54
2024/03/06 03:36:50;;;;;;;17.42;7.25;;;11.40;82.90;;;;;;4990878;28;112722;-54
2024/03/06 03:39:16;;;;;;;16.27;6.03;;;11.50;83.00;;;;;;4989007;28;115056;-54
2024/03/06 03:41:46;;;;;;;17.30;6.60;;;11.40;83.30;;;;;;4989258;28;113212;-54
2024/03/06 03:44:15;;;;;;;13.73;6.70;;;11.40;83.40;;;;;;4989849;28;113023;-54
2024/03/06 03:46:42;;;;;;;15.00;6.32;;;11.40;83.60;;;;;;4990062;28;112717;-54
2024/03/06 03:49:11;;;;;;;14.90;7.03;;;11.40;83.40;;;;;;4988987;28;113431;-54
2024/03/06 03:51:39;;;;;;;14.50;7.32;;;11.40;83.80;;;;;;4988831;28;114070;-54
2024/03/06 03:54:05;;;;;;;11.55;6.93;;;11.30;84.00;;;;;;4989994;28;112670;-54
2024/03/06 03:56:31;;;;;;;16.27;7.07;;;11.20;84.50;;;;;;4990084;28;112699;-54
2024/03/06 03:58:58;;;;;;;18.48;8.43;;;11.10;84.80;;;;;;4989075;28;113181;-54
2024/03/06 04:01:25;;;;;;;15.00;8.43;;;11.00;85.00;;;;;;4988297;28;113817;-53
2024/03/06 04:03:51;;;;;;;21.25;8.75;;;10.90;85.40;;;;;;4975594;28;112791;-54
2024/03/06 04:06:18;;;;;;;22.13;9.07;;;10.90;85.40;;;;;;4990077;28;112774;-54
2024/03/06 04:08:44;;;;;;;15.95;9.70;;;11.00;85.30;;;;;;4988441;28;114617;-54
2024/03/06 04:11:10;;;;;;;15.30;9.32;;;11.00;85.20;;;;;;4988552;28;113094;-54
2024/03/06 04:13:38;;;;;;;22.58;10.63;;;10.90;85.60;;;;;;4989406;28;113013;-52
2024/03/06 04:16:07;;;;;;;18.77;9.73;;;10.90;85.50;;;;;;4988928;28;112723;-54
2024/03/06 04:18:34;;;;;;;16.88;9.20;;;10.80;85.60;;;;;;4988450;28;113181;-54
2024/03/06 04:21:05;;;;;;;20.90;9.25;;;10.90;85.60;;;;;;4988491;28;112689;-54
2024/03/06 04:23:32;;;;;;;19.30;9.50;;;11.00;85.60;;;;;;4989782;28;112726;-54
2024/03/06 04:25:58;;;;;;;17.77;9.80;;;11.10;85.50;;;;;;4989288;28;113226;-54
2024/03/06 04:28:24;;;;;;;15.90;9.45;;;11.10;85.10;;;;;;4988122;28;113835;-54
2024/03/06 04:30:50;;;;;;;20.27;9.98;;;11.10;85.10;;;;;;4986819;28;113890;-54
2024/03/06 04:33:15;;;;;;;16.77;9.75;;;11.00;85.50;;;;;;4988515;28;112831;-54
2024/03/06 04:35:41;;;;;;;22.23;10.32;;;11.00;85.40;;;;;;4989553;28;112763;-54
2024/03/06 04:38:07;;;;;;;16.45;9.70;;;11.20;85.20;;;;;;4987790;28;113575;-54
2024/03/06 04:40:36;;;;;;;19.27;9.52;;;11.10;85.00;;;;;;4988315;28;112958;-54
2024/03/06 04:43:02;;;;;;;20.00;10.35;;;11.00;85.40;;;;;;4989188;28;112755;-54
2024/03/06 04:45:28;;;;;;;18.48;10.43;;;11.00;85.60;;;;;;4988762;28;112730;-54
2024/03/06 04:47:54;;;;;;;14.95;10.13;;;11.00;85.80;;;;;;4987039;28;114400;-54
2024/03/06 04:50:21;;;;;;;16.65;10.73;;;11.00;85.90;;;;;;4987205;28;114718;-54
2024/03/06 04:52:46;;;;;;;19.42;11.90;;;11.00;85.90;;;;;;4988265;28;114928;-54
2024/03/06 04:55:14;;;;;;;21.27;12.23;;;10.90;86.00;;;;;;4988716;28;113063;-54
2024/03/06 04:57:42;;;;;;;22.38;12.73;;;10.90;86.10;;;;;;4987045;28;113336;-55
2024/03/06 05:00:08;;;;;;;24.23;13.90;;;11.00;86.00;;;;;;4987262;28;113682;-54
2024/03/06 05:02:35;;;;;;;20.75;13.68;;;10.90;86.10;;;;;;4979414;28;112461;-55
2024/03/06 05:05:02;;;;;;;22.42;13.93;;;10.90;86.30;;;;;;4983322;28;112762;-54
2024/03/06 05:07:31;;;;;;;22.30;13.25;;;11.00;86.20;;;;;;4987491;28;113857;-54
2024/03/06 05:09:58;;;;;;;23.45;14.18;;;11.00;85.80;;;;;;4987065;28;113034;-55
2024/03/06 05:12:24;;;;;;;23.40;14.88;;;10.90;86.10;;;;;;4987675;28;112743;-54
2024/03/06 05:14:55;;;;;;;24.08;15.52;;;10.90;86.40;;;;;;4987898;28;112741;-54
2024/03/06 05:17:20;;;;;;;19.25;14.32;;;10.90;86.30;;;;;;4986819;28;114506;-54
2024/03/06 05:19:49;;;;;;;23.73;13.95;;;10.90;86.40;;;;;;4987201;28;112906;-54
2024/03/06 05:22:16;;;;;;;22.23;14.38;;;10.90;86.30;;;;;;4987661;28;112785;-54
2024/03/06 05:24:45;;;;;;;23.42;14.50;;;10.90;86.30;;;;;;4988026;28;112740;-54
2024/03/06 05:27:16;;;;;;;19.58;14.05;;;10.90;86.30;;;;;;4986660;28;114381;-54
2024/03/06 05:29:42;;;;;;;22.73;15.32;;;10.80;86.50;;;;;;4986801;28;113060;-54
2024/03/06 05:32:08;;;;;;;21.80;14.70;;;10.80;86.50;;;;;;4987595;28;112490;-54
2024/03/06 05:34:34;;;;;;;19.50;14.00;;;10.80;86.60;;;;;;4987660;28;112947;-54
2024/03/06 05:37:01;;;;;;;21.75;14.52;;;10.80;86.40;;;;;;4986901;28;113850;-54
2024/03/06 05:39:27;;;;;;;20.25;14.95;;;10.80;86.30;;;;;;5018181;27;114126;-54
2024/03/06 05:41:56;;;;;;;19.80;14.43;;;10.70;86.40;;;;;;4987243;28;112853;-54
2024/03/06 05:44:21;;;;;;;19.20;13.43;;;10.60;86.60;;;;;;4987501;28;112990;-54
2024/03/06 05:46:47;;;;;;;20.35;13.38;;;10.50;86.70;;;;;;4986781;28;113360;-54
2024/03/06 05:49:13;;;;;;;15.43;13.15;;;10.60;86.60;;;;;;5017460;27;114185;-54
2024/03/06 05:51:39;;;;;;;20.23;13.98;;;10.60;86.70;;;;;;4987061;28;112850;-54
2024/03/06 05:54:08;;;;;;;20.77;13.48;;;10.50;86.60;;;;;;4987600;28;112722;-54
2024/03/06 05:56:34;;;;;;;18.48;12.90;;;10.40;87.00;;;;;;4986356;28;113307;-54
2024/03/06 05:59:04;;;;;;;16.75;13.07;;;10.40;87.00;;;;;;4986631;28;113228;-54
2024/03/06 06:01:33;;;;;;;18.77;13.80;;;10.40;86.90;;;;;;4986882;28;112758;-54
2024/03/06 06:04:00;;;;;;;16.90;13.20;;;10.40;86.90;;;;;;4973470;28;112744;-54
2024/03/06 06:06:26;;;;;;;23.23;13.27;;;10.50;86.70;;;;;;4986395;28;113382;-54
2024/03/06 06:08:51;;;;;;;16.98;13.18;;;10.50;86.30;;;;;;4986164;28;113080;-54
2024/03/06 06:11:17;;;;;;;17.58;12.35;;;10.60;86.30;;;;;;4987444;28;113387;-54
2024/03/06 06:13:43;;;;;;;18.30;12.77;;;10.60;86.40;;;;;;4987003;28;112636;-54
2024/03/06 06:16:09;;;;;;;19.65;12.35;;;10.80;85.80;;;;;;4986159;28;113216;-54
2024/03/06 06:18:34;;;;;;;17.98;13.27;;;10.80;85.70;;;;;;4985822;28;113823;-54
2024/03/06 06:21:00;;;;;;;20.05;12.02;;;10.80;85.70;;;;;;4986999;28;112786;-54
2024/03/06 06:23:26;;;;;;;16.52;11.55;;;10.80;85.90;;;;;;4987289;28;112630;-54
2024/03/06 06:25:52;;;;;;;16.35;11.68;;;10.80;85.90;;;;;;4985705;28;114987;-54
2024/03/06 06:28:17;;;;;;;20.05;11.30;;;10.80;85.90;;;;;;4985759;28;113257;-54
2024/03/06 06:30:43;;;;;;;13.90;10.95;;;10.80;86.00;;;;;;4986321;28;113015;-54
2024/03/06 06:33:09;;;;;;;15.43;10.50;;;10.80;86.00;;;;;;4986875;28;112774;-54
2024/03/06 06:35:35;;;;;;;14.05;11.05;;;10.90;86.00;;;;;;4986445;28;113799;-54
2024/03/06 06:38:02;;;;;;;14.18;10.18;;;11.00;85.60;;;;;;4986747;28;113162;-54
2024/03/06 06:40:28;;;;;;;14.05;10.02;;;11.00;85.60;;;;;;4986397;28;113099;-54
2024/03/06 06:42:54;;;;;;;16.30;10.10;;;11.10;85.60;;;;;;4986680;28;112850;-54
2024/03/06 06:45:23;;;;;;;12.50;9.65;;;11.10;85.40;;;;;;4985808;28;113381;-54
2024/03/06 06:47:51;;;;;;;15.90;10.70;;;11.20;85.40;;;;;;4985785;28;112878;-54
2024/03/06 06:50:17;;;;;;;19.08;9.73;;;11.10;85.40;;;;;;4986499;28;112698;-54
2024/03/06 06:52:43;;;;;;;13.90;9.48;;;11.20;85.30;;;;;;4986840;28;113076;-54
2024/03/06 06:55:11;;;;;;;16.92;9.00;;;11.30;85.10;;;;;;4986045;28;114648;-54
2024/03/06 06:57:38;;;;;;;16.38;9.88;;;11.30;85.00;;;;;;4986485;28;113120;-54
2024/03/06 07:00:10;;;;;;;11.90;9.68;;;11.40;84.70;;;;;;4973150;28;112796;-54
2024/03/06 07:02:41;;;;;;;13.85;9.55;;;11.60;84.30;;;;;;4978194;28;112735;-54
2024/03/06 07:05:08;;;;;;;12.38;9.18;;;11.80;83.40;;;;;;4981937;28;113259;-55
2024/03/06 07:07:34;;;;;;;13.23;8.82;;;11.80;83.40;;;;;;4986066;28;112782;-55
2024/03/06 07:10:04;;;;;;;14.50;8.52;;;11.50;83.50;;;;;;4987055;28;112575;-54
2024/03/06 07:12:30;;;;;;;12.48;7.70;;;11.60;84.10;;;;;;4985534;28;112686;-54
2024/03/06 07:14:56;;;;;;;12.55;8.18;;;11.80;83.40;;;;;;4985949;28;113217;-54
2024/03/06 07:17:22;;;;;;;12.23;7.90;;;12.00;82.40;;;;;;4985701;28;113270;-54
2024/03/06 07:19:48;;;;;;;9.98;7.15;;;12.10;82.50;;;;;;4986792;28;112907;-54
2024/03/06 07:22:13;;;;;;;10.07;7.25;;;12.00;81.70;;;;;;4986962;28;113130;-55
2024/03/06 07:24:39;;;;;;;11.10;6.95;;;12.00;81.70;;;;;;4985992;28;113138;-54
2024/03/06 07:27:05;;;;;;;10.93;7.30;;;11.80;81.80;;;;;;4985595;28;113847;-54
2024/03/06 07:29:31;;;;;;;8.07;6.00;;;11.80;82.30;;;;;;4986560;28;112926;-55
2024/03/06 07:31:57;;;;;;;7.43;5.20;;;11.80;81.50;;;;;;4987039;28;112658;-54
2024/03/06 07:34:22;;;;;;;9.65;5.45;;;11.70;81.20;;;;;;4985880;28;113439;-54
2024/03/06 07:36:49;;;;;;;9.85;5.45;;;11.90;81.20;;;;;;4986367;28;112901;-55
2024/03/06 07:39:18;;;;;;;7.72;5.43;;;12.00;81.10;;;;;;4986388;28;112806;-54
2024/03/06 07:41:44;;;;;;;7.45;4.75;;;12.10;80.50;;;;;;4986407;28;112738;-54
2024/03/06 07:44:09;;;;;;;8.18;4.28;;;12.20;80.00;;;;;;4985180;28;113813;-54
2024/03/06 07:46:36;;;;;;;5.85;3.25;;;12.30;78.60;;;;;;4985524;28;113852;-54
2024/03/06 07:49:02;;;;;;;13.40;4.22;;;12.30;78.80;;;;;;4986578;28;112746;-55
2024/03/06 07:51:30;;;;;;;8.68;3.13;;;12.60;78.30;;;;;;4985069;28;113708;-54
2024/03/06 07:53:57;;;;;;;8.63;3.20;;;12.90;76.60;;;;;;4985553;28;113202;-55
2024/03/06 07:56:23;;;;;;;4.72;3.10;;;13.00;75.50;;;;;;4985140;28;114130;-55
2024/03/06 07:58:49;;;;;;;6.18;3.00;;;13.00;75.70;;;;;;4986337;28;112683;-55
2024/03/06 08:01:15;;;;;;;8.25;2.75;;;13.40;75.20;;;;;;4986411;28;112935;-55
2024/03/06 08:03:42;;;;;;;4.60;2.60;;;13.30;74.30;;;;;;4971397;28;114438;-55
2024/03/06 08:06:08;;;;;;;6.68;2.80;;;13.30;73.10;;;;;;4985033;28;114073;-55
2024/03/06 08:08:35;;;;;;;5.28;2.45;;;13.30;73.20;;;;;;4986027;28;112640;-55
2024/03/06 08:11:01;;;;;;;5.55;2.35;;;13.40;73.10;;;;;;4986829;28;112918;-55
2024/03/06 08:13:27;;;;;;;4.15;2.20;;;13.70;72.30;;;;;;4986909;28;114356;-55
2024/03/06 08:15:53;;;;;;;3.20;1.88;;;13.80;71.40;;;;;;4988537;28;114046;-55
2024/03/06 08:18:19;;;;;;;4.38;2.33;;;14.20;69.50;;;;;;4989659;28;112616;-55
2024/03/06 08:20:44;;;;;;;6.63;2.63;;;14.30;69.20;;;;;;4989435;28;112750;-55
2024/03/06 08:23:10;;;;;;;4.53;2.15;;;14.10;70.60;;;;;;4988568;28;114827;-55
2024/03/06 08:25:36;;;;;;;5.15;2.50;;;14.60;69.50;;;;;;4988601;28;112624;-55
2024/03/06 08:28:05;;;;;;;5.75;2.58;;;15.10;68.40;;;;;;4989258;28;112885;-55
2024/03/06 08:30:31;;;;;;;6.40;2.88;;;15.10;66.80;;;;;;4989013;28;112662;-55
2024/03/06 08:32:58;;;;;;;6.13;2.70;;;15.10;66.10;;;;;;4988515;28;113218;-55
2024/03/06 08:35:24;;;;;;;7.05;3.00;;;15.10;66.60;;;;;;4988952;28;112909;-56
2024/03/06 08:37:50;;;;;;;6.95;3.05;;;15.40;65.80;;;;;;4988910;28;112805;-55
2024/03/06 08:40:20;;;;;;;5.38;3.13;;;15.60;65.80;;;;;;4973045;28;112784;-54
2024/03/06 08:42:49;;;;;;;4.78;3.03;;;15.70;64.90;;;;;;4981877;28;113152;-55
2024/03/06 08:45:16;;;;;;;5.53;3.15;;;16.10;64.40;;;;;;4969695;28;113167;-55
2024/03/06 08:47:43;;;;;;;6.00;2.83;;;16.20;63.80;;;;;;4984611;28;112762;-55
2024/03/06 08:50:10;;;;;;;4.82;3.00;;;16.40;64.20;;;;;;4970645;28;113099;-55
2024/03/06 08:52:36;;;;;;;3.67;2.95;;;16.80;61.80;;;;;;4983975;28;113109;-55
2024/03/06 08:55:05;;;;;;;5.25;3.22;;;17.30;61.10;;;;;;4985887;28;112979;-55
2024/03/06 08:57:32;;;;;;;4.72;3.20;;;17.40;60.10;;;;;;4987589;28;112596;-55
2024/03/06 08:59:58;;;;;;;8.10;3.10;;;16.70;60.80;;;;;;4988197;28;112846;-55
2024/03/06 09:02:25;;;;;;;4.63;3.40;;;16.60;61.80;;;;;;4983410;28;113242;-55
2024/03/06 09:04:54;;;;;;;4.82;3.03;;;17.30;60.30;;;;;;4986285;28;114018;-55
2024/03/06 09:07:23;;;;;;;6.10;3.63;;;17.80;59.80;;;;;;4986831;28;113115;-55
2024/03/06 09:09:52;;;;;;;5.82;4.07;;;17.80;59.60;;;;;;4988187;28;112798;-54
2024/03/06 09:12:18;;;;;;;5.85;3.97;;;17.20;60.40;;;;;;4982368;28;113284;-55
2024/03/06 09:14:44;;;;;;;9.65;5.30;;;16.90;61.00;;;;;;4985106;28;113193;-55
2024/03/06 09:17:14;;;;;;;5.90;4.55;;;16.60;62.90;;;;;;4984483;28;112977;-55
2024/03/06 09:19:40;;;;;;;7.07;5.03;;;16.50;62.40;;;;;;4986639;28;112650;-56
2024/03/06 09:22:06;;;;;;;8.85;5.20;;;16.70;62.80;;;;;;4984851;28;113231;-55
2024/03/06 09:24:32;;;;;;;6.82;5.20;;;16.80;62.30;;;;;;4986091;28;113222;-55
2024/03/06 09:26:58;;;;;;;10.15;6.35;;;16.80;62.80;;;;;;4987682;28;112846;-55
2024/03/06 09:29:23;;;;;;;6.82;6.00;;;16.80;63.10;;;;;;4975046;28;112874;-55
2024/03/06 09:31:49;;;;;;;7.32;5.72;;;16.90;63.00;;;;;;4967520;28;113988;-56
2024/03/06 09:34:15;;;;;;;7.70;5.70;;;16.20;64.50;;;;;;4965794;28;115695;-55
2024/03/06 09:36:45;;;;;;;8.45;5.50;;;15.90;65.50;;;;;;4969020;28;112835;-55
2024/03/06 09:39:20;;;;;;;10.07;6.20;;;15.90;65.90;;;;;;4968582;28;113142;-55
2024/03/06 09:41:50;;;;;;;8.95;5.75;;;16.70;64.40;;;;;;4967266;28;114419;-56
2024/03/06 09:44:16;;;;;;;11.07;5.72;;;16.40;63.90;;;;;;4967135;28;112988;-50
2024/03/06 09:46:46;;;;;;;10.43;5.68;;;16.40;66.30;;;;;;4969266;28;112652;-50
2024/03/06 09:49:14;;;;;;;7.85;5.65;;;16.90;65.10;;;;;;4981356;28;112642;-50
2024/03/06 09:51:46;;;;;;;8.63;5.10;;;17.00;64.00;;;;;;4975708;28;114816;-52
2024/03/06 09:54:15;;;;;;;9.32;5.65;;;17.60;63.00;;;;;;4972567;28;113868;-54
2024/03/06 09:56:48;;;;;;;11.27;5.68;;;17.60;61.60;;;;;;4976519;28;113001;-52
2024/03/06 09:59:14;;;;;;;;;;;17.40;63.00;;;;;;4968974;28;113066;-57
2024/03/06 10:01:46;;;;;;;7.25;4.80;;;16.50;62.60;;;;;;4968150;28;113190;-56
2024/03/06 10:04:22;;;;;;;11.32;5.35;;;15.90;64.80;;;;;;4973316;28;112891;-56
2024/03/06 10:06:49;;;;;;;5.97;5.00;;;15.90;64.60;;;;;;4967815;28;112833;-56
2024/03/06 10:09:19;;;;;;;8.25;5.68;;;15.70;65.30;;;;;;4966367;28;113133;-55
2024/03/06 10:11:45;;;;;;;7.72;5.43;;;15.60;66.40;;;;;;4980399;28;114358;-56
2024/03/06 10:14:11;;;;;;;9.93;5.20;;;15.60;65.40;;;;;;4966532;28;114124;-56
2024/03/06 10:16:37;;;;;;;8.45;4.88;;;15.80;64.50;;;;;;4969191;28;113938;-55
2024/03/06 10:19:18;;;;;;;9.90;5.55;;;15.60;65.10;;;;;;4983706;28;113627;-55
2024/03/06 10:21:51;;;;;;;8.32;4.93;;;16.10;63.80;;;;;;4979436;28;113246;-56
2024/03/06 10:24:27;;;;;;;8.13;4.70;;;16.10;64.00;;;;;;4986846;28;113139;-56
2024/03/06 10:26:57;;;;;;;6.68;4.45;;;16.70;61.40;;;;;;4993887;28;112618;-55
2024/03/06 10:29:24;;;;;;;5.63;4.35;;;16.40;61.80;;;;;;4980552;28;112755;-56
2024/03/06 10:31:56;;;;;;;5.78;4.50;;;16.10;62.50;;;;;;4977605;28;113357;-57
2024/03/06 10:34:24;;;;;;;4.90;3.38;;;16.80;60.80;;;;;;4976971;28;115412;-57
2024/03/06 10:36:57;;;;;;;7.82;3.70;;;17.30;59.70;;;;;;4994528;28;112821;-57
2024/03/06 10:39:24;;;;;;;6.05;4.20;;;17.80;58.90;;;;;;4987032;28;114656;-56
2024/03/06 10:41:54;;;;;;;5.38;3.60;;;18.80;56.50;;;;;;4988372;28;114651;-57
2024/03/06 10:44:25;;;;;;;5.22;3.60;;;19.60;55.20;;;;;;4981177;28;113408;-56
2024/03/06 10:47:09;;;;;;;6.63;3.58;;;20.70;51.40;;;;;;4992879;28;112775;-57
2024/03/06 10:49:36;;;;;;;6.18;3.60;;;21.90;48.40;;;;;;4988848;28;112744;-57
2024/03/06 10:52:07;;;;;;;5.68;3.92;;;23.00;46.20;;;;;;4985040;28;113565;-57
2024/03/06 10:54:38;;;;;;;8.30;3.95;;;23.10;45.90;;;;;;4975544;28;113178;-57
2024/03/06 10:57:04;;;;;;;8.07;4.50;;;22.00;47.80;;;;;;4976098;28;112823;-57
2024/03/06 10:59:30;;;;;;;5.90;4.28;;;20.60;50.20;;;;;;4986978;28;113273;-57
2024/03/06 11:02:00;;;;;;;6.68;3.92;;;20.80;50.60;;;;;;4980634;28;113671;-57
2024/03/06 11:04:33;;;;;;;6.03;3.88;;;21.80;47.70;;;;;;4990487;28;113394;-57
2024/03/06 11:07:00;;;;;;;7.10;4.70;;;21.70;48.70;;;;;;4994962;28;112978;-57
2024/03/06 11:09:27;;;;;;;9.27;5.05;;;22.50;46.80;;;;;;4990699;28;112817;-57
2024/03/06 11:12:02;;;;;;;5.70;5.00;;;22.40;46.40;;;;;;4985754;28;113218;-57
2024/03/06 11:14:41;;;;;;;7.97;5.07;;;21.50;49.10;;;;;;4983352;28;113088;-57
2024/03/06 11:17:15;;;;;;;5.90;5.38;;;22.00;48.00;;;;;;4983354;28;112694;-57
2024/03/06 11:20:12;;;;;;;5.50;4.95;;;22.50;46.60;;;;;;4984625;28;112752;-57
2024/03/06 11:22:58;;;;;;;6.93;5.13;;;23.70;43.90;;;;;;4981814;28;113580;-57
2024/03/06 11:25:55;;;;;;;6.20;4.82;;;24.60;43.00;;;;;;4984432;28;112727;-58
2024/03/06 11:28:28;;;;;;;5.40;4.90;;;24.70;42.40;;;;;;4976966;28;112896;-57
2024/03/06 11:30:56;;;;;;;6.53;4.72;;;22.20;46.00;;;;;;4983857;28;112632;-56
2024/03/06 11:33:21;;;;;;;5.07;4.57;;;21.90;46.70;;;;;;4973576;28;113158;-57
2024/03/06 11:36:31;;;;;;;5.30;4.43;;;21.00;48.40;;;;;;4993158;28;113909;-58
2024/03/06 11:39:07;;;;;;;5.38;4.40;;;22.40;46.30;;;;;;4986913;28;112568;-56
2024/03/06 11:41:45;;;;;;;5.30;4.78;;;23.40;43.50;;;;;;4978711;28;113292;-57
2024/03/06 11:44:21;;;;;;;5.97;4.25;;;23.70;42.60;;;;;;4974674;28;113349;-57
2024/03/06 11:47:00;;;;;;;4.90;4.22;;;22.70;44.10;;;;;;4973167;28;113792;-57
2024/03/06 11:49:40;;;;;;;4.70;4.20;;;22.10;44.90;;;;;;4981333;28;112506;-58
2024/03/06 11:52:12;;;;;;;4.28;3.85;;;23.30;43.30;;;;;;4985905;28;113648;-55
2024/03/06 11:54:43;;;;;;;;;;;23.90;42.30;;;;;;4972446;28;113321;-55
2024/03/06 11:57:21;;;;;;;5.45;4.28;;;21.50;46.70;;;;;;4978919;28;114454;-57
2024/03/06 11:59:53;;;;;;;4.70;4.10;;;20.00;50.20;;;;;;4994930;28;112657;-56
2024/03/06 12:02:22;;;;;;;6.37;4.40;;;19.60;50.80;;;;;;4977209;28;112957;-56
2024/03/06 12:04:53;;;;;;;4.43;4.03;;;19.00;52.40;;;;;;4982188;28;113297;-57
2024/03/06 12:07:19;;;;;;;4.60;3.90;;;19.30;52.60;;;;;;4983518;28;113086;-56
2024/03/06 12:09:45;;;;;;;4.68;4.10;;;18.20;54.70;;;;;;4977115;28;114085;-57
2024/03/06 12:12:11;;;;;;;6.90;4.30;;;17.20;56.70;;;;;;4982064;28;112733;-56
2024/03/06 12:14:38;;;;;;;6.70;4.60;;;17.30;56.90;;;;;;4996458;28;113133;-55
2024/03/06 12:17:04;;;;;;;6.40;4.63;;;17.80;55.90;;;;;;4982836;28;113392;-57
2024/03/06 12:19:34;;;;;;;5.55;4.70;;;18.80;54.10;;;;;;4981626;28;113048;-56
2024/03/06 12:22:01;;;;;;;5.60;4.68;;;19.50;51.70;;;;;;4981161;28;112725;-57
2024/03/06 12:24:27;;;;;;;7.63;3.97;;;20.10;51.10;;;;;;4989965;28;113302;-57
2024/03/06 12:27:04;;;;;;;6.32;4.38;;;20.40;50.00;;;;;;4987784;28;113035;-57
2024/03/06 12:29:32;;;;;;;4.65;4.20;;;19.40;51.30;;;;;;4983234;28;112741;-57
2024/03/06 12:31:59;;;;;;;7.35;5.00;;;19.30;52.80;;;;;;4977648;28;113162;-56
2024/03/06 12:34:24;;;;;;;5.60;4.57;;;18.10;54.50;;;;;;4992006;28;114447;-57